sensor_id;sensor_type;location;lat;lon;timestamp;P1;durP1;ratioP1;P2;durP2;ratioP2
8944;SDS011;4507;40.232;29.132;2023-04-04T00:00:09;24.03;;;9.40;;
8944;SDS011;4507;40.232;29.132;2023-04-04T00:02:39;26.40;;;9.00;;
8944;SDS011;4507;40.232;29.132;2023-04-04T00:05:09;27.37;;;10.43;;
8944;SDS011;4507;40.232;29.132;2023-04-04T00:07:38;21.73;;;9.83;;
8944;SDS011;4507;40.232;29.132;2023-04-04T00:10:07;28.73;;;9.27;;
8944;SDS011;4507;40.232;29.132;2023-04-04T00:12:37;25.90;;;9.57;;
8944;SDS011;4507;40.232;29.132;2023-04-04T00:15:06;28.03;;;9.10;;
8944;SDS011;4507;40.232;29.132;2023-04-04T00:17:35;28.60;;;9.37;;
8944;SDS011;4507;40.232;29.132;2023-04-04T00:20:05;26.87;;;8.63;;
8944;SDS011;4507;40.232;29.132;2023-04-04T00:22:36;18.10;;;8.07;;
8944;SDS011;4507;40.232;29.132;2023-04-04T00:25:05;19.63;;;7.70;;
8944;SDS011;4507;40.232;29.132;2023-04-04T00:27:35;14.20;;;7.13;;
8944;SDS011;4507;40.232;29.132;2023-04-04T00:30:04;16.27;;;7.70;;
8944;SDS011;4507;40.232;29.132;2023-04-04T00:32:34;21.73;;;7.37;;
8944;SDS011;4507;40.232;29.132;2023-04-04T00:35:03;16.00;;;8.37;;
8944;SDS011;4507;40.232;29.132;2023-04-04T00:37:49;29.27;;;14.93;;
8944;SDS011;4507;40.232;29.132;2023-04-04T00:40:19;30.90;;;15.40;;
8944;SDS011;4507;40.232;29.132;2023-04-04T00:42:48;46.50;;;22.87;;
8944;SDS011;4507;40.232;29.132;2023-04-04T00:45:17;51.87;;;23.60;;
8944;SDS011;4507;40.232;29.132;2023-04-04T00:47:47;50.90;;;33.23;;
8944;SDS011;4507;40.232;29.132;2023-04-04T00:50:17;70.03;;;46.13;;
8944;SDS011;4507;40.232;29.132;2023-04-04T00:52:48;38.97;;;22.73;;
8944;SDS011;4507;40.232;29.132;2023-04-04T00:55:18;30.60;;;17.60;;
8944;SDS011;4507;40.232;29.132;2023-04-04T00:57:47;34.73;;;18.23;;
8944;SDS011;4507;40.232;29.132;2023-04-04T01:00:17;29.50;;;16.43;;
8944;SDS011;4507;40.232;29.132;2023-04-04T01:02:46;31.50;;;16.80;;
8944;SDS011;4507;40.232;29.132;2023-04-04T01:05:16;39.37;;;19.47;;
8944;SDS011;4507;40.232;29.132;2023-04-04T01:07:45;39.97;;;21.10;;
8944;SDS011;4507;40.232;29.132;2023-04-04T01:10:34;41.53;;;22.90;;
8944;SDS011;4507;40.232;29.132;2023-04-04T01:13:03;40.37;;;27.47;;
8944;SDS011;4507;40.232;29.132;2023-04-04T01:15:32;48.60;;;31.63;;
8944;SDS011;4507;40.232;29.132;2023-04-04T01:18:01;37.30;;;23.90;;
8944;SDS011;4507;40.232;29.132;2023-04-04T01:20:33;32.03;;;20.20;;
8944;SDS011;4507;40.232;29.132;2023-04-04T01:23:08;32.07;;;16.53;;
8944;SDS011;4507;40.232;29.132;2023-04-04T01:25:40;23.90;;;14.07;;
8944;SDS011;4507;40.232;29.132;2023-04-04T01:28:12;27.87;;;15.47;;
8944;SDS011;4507;40.232;29.132;2023-04-04T01:30:42;29.10;;;16.30;;
8944;SDS011;4507;40.232;29.132;2023-04-04T01:33:15;27.03;;;16.30;;
8944;SDS011;4507;40.232;29.132;2023-04-04T01:35:51;22.87;;;15.87;;
8944;SDS011;4507;40.232;29.132;2023-04-04T01:38:27;27.83;;;17.07;;
8944;SDS011;4507;40.232;29.132;2023-04-04T01:41:07;28.37;;;18.70;;
8944;SDS011;4507;40.232;29.132;2023-04-04T01:43:43;31.47;;;21.17;;
8944;SDS011;4507;40.232;29.132;2023-04-04T01:46:15;31.03;;;20.27;;
8944;SDS011;4507;40.232;29.132;2023-04-04T01:48:47;32.57;;;22.47;;
8944;SDS011;4507;40.232;29.132;2023-04-04T01:51:20;34.83;;;23.73;;
8944;SDS011;4507;40.232;29.132;2023-04-04T01:53:51;35.37;;;25.77;;
8944;SDS011;4507;40.232;29.132;2023-04-04T01:56:22;35.53;;;27.17;;
8944;SDS011;4507;40.232;29.132;2023-04-04T01:58:51;35.23;;;29.57;;
8944;SDS011;4507;40.232;29.132;2023-04-04T02:01:20;41.00;;;31.17;;
8944;SDS011;4507;40.232;29.132;2023-04-04T02:03:50;38.20;;;28.03;;
8944;SDS011;4507;40.232;29.132;2023-04-04T02:06:19;35.67;;;28.73;;
8944;SDS011;4507;40.232;29.132;2023-04-04T02:08:48;39.63;;;27.33;;
8944;SDS011;4507;40.232;29.132;2023-04-04T02:11:18;35.33;;;27.70;;
8944;SDS011;4507;40.232;29.132;2023-04-04T02:13:50;41.60;;;28.77;;
8944;SDS011;4507;40.232;29.132;2023-04-04T02:16:19;42.53;;;33.27;;
8944;SDS011;4507;40.232;29.132;2023-04-04T02:18:49;45.07;;;34.47;;
8944;SDS011;4507;40.232;29.132;2023-04-04T02:21:18;50.13;;;35.93;;
8944;SDS011;4507;40.232;29.132;2023-04-04T02:23:48;41.83;;;29.53;;
8944;SDS011;4507;40.232;29.132;2023-04-04T02:26:19;39.83;;;27.60;;
8944;SDS011;4507;40.232;29.132;2023-04-04T02:28:48;36.33;;;24.93;;
8944;SDS011;4507;40.232;29.132;2023-04-04T02:31:18;45.43;;;33.20;;
8944;SDS011;4507;40.232;29.132;2023-04-04T02:33:49;37.47;;;27.00;;
8944;SDS011;4507;40.232;29.132;2023-04-04T02:36:20;36.07;;;25.90;;
8944;SDS011;4507;40.232;29.132;2023-04-04T02:38:50;38.70;;;25.73;;
8944;SDS011;4507;40.232;29.132;2023-04-04T02:41:23;39.20;;;26.10;;
8944;SDS011;4507;40.232;29.132;2023-04-04T02:43:52;34.23;;;25.17;;
8944;SDS011;4507;40.232;29.132;2023-04-04T02:46:23;39.33;;;27.83;;
8944;SDS011;4507;40.232;29.132;2023-04-04T02:48:57;39.97;;;26.57;;
8944;SDS011;4507;40.232;29.132;2023-04-04T02:51:28;36.57;;;25.07;;
8944;SDS011;4507;40.232;29.132;2023-04-04T02:53:59;37.73;;;27.67;;
8944;SDS011;4507;40.232;29.132;2023-04-04T02:56:36;38.37;;;26.13;;
8944;SDS011;4507;40.232;29.132;2023-04-04T02:59:05;46.87;;;28.53;;
8944;SDS011;4507;40.232;29.132;2023-04-04T03:01:54;38.57;;;27.87;;
8944;SDS011;4507;40.232;29.132;2023-04-04T03:04:23;34.83;;;24.23;;
8944;SDS011;4507;40.232;29.132;2023-04-04T03:06:52;35.03;;;23.40;;
8944;SDS011;4507;40.232;29.132;2023-04-04T03:09:21;33.87;;;21.23;;
8944;SDS011;4507;40.232;29.132;2023-04-04T03:11:50;42.87;;;21.60;;
8944;SDS011;4507;40.232;29.132;2023-04-04T03:14:19;32.43;;;20.53;;
8944;SDS011;4507;40.232;29.132;2023-04-04T03:16:49;31.50;;;19.47;;
8944;SDS011;4507;40.232;29.132;2023-04-04T03:19:19;28.23;;;19.40;;
8944;SDS011;4507;40.232;29.132;2023-04-04T03:21:50;30.70;;;18.30;;
8944;SDS011;4507;40.232;29.132;2023-04-04T03:24:19;34.07;;;19.43;;
8944;SDS011;4507;40.232;29.132;2023-04-04T03:26:50;27.87;;;17.73;;
8944;SDS011;4507;40.232;29.132;2023-04-04T03:29:19;31.83;;;18.90;;
8944;SDS011;4507;40.232;29.132;2023-04-04T03:31:49;28.83;;;18.10;;
8944;SDS011;4507;40.232;29.132;2023-04-04T03:34:20;34.13;;;17.57;;
8944;SDS011;4507;40.232;29.132;2023-04-04T03:37:17;29.83;;;17.40;;
8944;SDS011;4507;40.232;29.132;2023-04-04T03:39:47;28.53;;;16.93;;
8944;SDS011;4507;40.232;29.132;2023-04-04T03:42:17;35.27;;;17.03;;
8944;SDS011;4507;40.232;29.132;2023-04-04T03:44:46;27.70;;;15.63;;
8944;SDS011;4507;40.232;29.132;2023-04-04T03:47:25;27.17;;;15.63;;
8944;SDS011;4507;40.232;29.132;2023-04-04T03:49:58;29.53;;;15.13;;
8944;SDS011;4507;40.232;29.132;2023-04-04T03:52:28;21.67;;;14.07;;
8944;SDS011;4507;40.232;29.132;2023-04-04T03:54:57;24.63;;;14.40;;
8944;SDS011;4507;40.232;29.132;2023-04-04T03:57:26;46.90;;;22.30;;
8944;SDS011;4507;40.232;29.132;2023-04-04T03:59:55;44.63;;;19.70;;
8944;SDS011;4507;40.232;29.132;2023-04-04T04:02:23;53.40;;;27.77;;
8944;SDS011;4507;40.232;29.132;2023-04-04T04:04:53;52.83;;;30.07;;
8944;SDS011;4507;40.232;29.132;2023-04-04T04:07:24;46.90;;;29.83;;
8944;SDS011;4507;40.232;29.132;2023-04-04T04:09:53;48.93;;;31.37;;
8944;SDS011;4507;40.232;29.132;2023-04-04T04:12:22;53.37;;;31.50;;
8944;SDS011;4507;40.232;29.132;2023-04-04T04:14:52;74.77;;;44.40;;
8944;SDS011;4507;40.232;29.132;2023-04-04T04:17:21;69.33;;;45.50;;
8944;SDS011;4507;40.232;29.132;2023-04-04T04:19:50;69.23;;;41.73;;
8944;SDS011;4507;40.232;29.132;2023-04-04T04:22:19;108.07;;;86.27;;
8944;SDS011;4507;40.232;29.132;2023-04-04T04:24:49;83.40;;;64.80;;
8944;SDS011;4507;40.232;29.132;2023-04-04T04:27:18;61.60;;;44.93;;
8944;SDS011;4507;40.232;29.132;2023-04-04T04:29:47;54.17;;;34.33;;
8944;SDS011;4507;40.232;29.132;2023-04-04T04:32:16;76.20;;;59.80;;
8944;SDS011;4507;40.232;29.132;2023-04-04T04:34:50;71.23;;;54.70;;
8944;SDS011;4507;40.232;29.132;2023-04-04T04:37:24;48.90;;;31.30;;
8944;SDS011;4507;40.232;29.132;2023-04-04T04:39:56;48.83;;;33.07;;
8944;SDS011;4507;40.232;29.132;2023-04-04T04:42:35;51.73;;;36.77;;
8944;SDS011;4507;40.232;29.132;2023-04-04T04:45:04;52.90;;;35.83;;
8944;SDS011;4507;40.232;29.132;2023-04-04T04:47:36;54.33;;;37.80;;
8944;SDS011;4507;40.232;29.132;2023-04-04T04:50:07;47.97;;;34.13;;
8944;SDS011;4507;40.232;29.132;2023-04-04T04:52:42;47.70;;;34.23;;
8944;SDS011;4507;40.232;29.132;2023-04-04T04:55:15;50.27;;;34.70;;
8944;SDS011;4507;40.232;29.132;2023-04-04T04:58:00;76.43;;;51.20;;
8944;SDS011;4507;40.232;29.132;2023-04-04T05:00:30;62.17;;;45.67;;
8944;SDS011;4507;40.232;29.132;2023-04-04T05:02:59;61.13;;;39.10;;
8944;SDS011;4507;40.232;29.132;2023-04-04T05:05:46;47.13;;;35.07;;
8944;SDS011;4507;40.232;29.132;2023-04-04T05:08:16;46.40;;;33.43;;
8944;SDS011;4507;40.232;29.132;2023-04-04T05:11:02;43.17;;;32.33;;
8944;SDS011;4507;40.232;29.132;2023-04-04T05:13:39;44.07;;;30.67;;
8944;SDS011;4507;40.232;29.132;2023-04-04T05:16:08;41.80;;;30.27;;
8944;SDS011;4507;40.232;29.132;2023-04-04T05:18:37;39.60;;;30.10;;
8944;SDS011;4507;40.232;29.132;2023-04-04T05:21:09;49.63;;;30.83;;
8944;SDS011;4507;40.232;29.132;2023-04-04T05:23:38;47.40;;;31.50;;
8944;SDS011;4507;40.232;29.132;2023-04-04T05:26:09;46.80;;;29.20;;
8944;SDS011;4507;40.232;29.132;2023-04-04T05:28:39;45.03;;;28.47;;
8944;SDS011;4507;40.232;29.132;2023-04-04T05:31:08;40.13;;;26.30;;
8944;SDS011;4507;40.232;29.132;2023-04-04T05:33:37;40.80;;;23.60;;
8944;SDS011;4507;40.232;29.132;2023-04-04T05:36:11;37.57;;;22.93;;
8944;SDS011;4507;40.232;29.132;2023-04-04T05:38:49;35.17;;;22.63;;
8944;SDS011;4507;40.232;29.132;2023-04-04T05:41:22;36.70;;;22.97;;
8944;SDS011;4507;40.232;29.132;2023-04-04T05:43:56;33.33;;;20.53;;
8944;SDS011;4507;40.232;29.132;2023-04-04T05:46:26;50.03;;;28.70;;
8944;SDS011;4507;40.232;29.132;2023-04-04T05:48:55;45.67;;;28.17;;
8944;SDS011;4507;40.232;29.132;2023-04-04T05:51:25;84.20;;;47.50;;
8944;SDS011;4507;40.232;29.132;2023-04-04T05:54:05;104.27;;;58.20;;
8944;SDS011;4507;40.232;29.132;2023-04-04T05:56:37;97.87;;;55.27;;
8944;SDS011;4507;40.232;29.132;2023-04-04T05:59:13;80.33;;;42.93;;
8944;SDS011;4507;40.232;29.132;2023-04-04T06:01:54;57.87;;;32.63;;
8944;SDS011;4507;40.232;29.132;2023-04-04T06:04:24;40.20;;;27.43;;
8944;SDS011;4507;40.232;29.132;2023-04-04T06:06:55;44.60;;;27.83;;
8944;SDS011;4507;40.232;29.132;2023-04-04T06:09:24;39.47;;;26.97;;
8944;SDS011;4507;40.232;29.132;2023-04-04T06:11:55;34.07;;;25.10;;
8944;SDS011;4507;40.232;29.132;2023-04-04T06:14:29;41.73;;;28.47;;
8944;SDS011;4507;40.232;29.132;2023-04-04T06:17:08;41.97;;;32.80;;
8944;SDS011;4507;40.232;29.132;2023-04-04T06:19:37;51.40;;;37.20;;
8944;SDS011;4507;40.232;29.132;2023-04-04T06:22:07;54.47;;;41.10;;
8944;SDS011;4507;40.232;29.132;2023-04-04T06:24:41;48.50;;;31.20;;
8944;SDS011;4507;40.232;29.132;2023-04-04T06:27:13;51.57;;;31.40;;
8944;SDS011;4507;40.232;29.132;2023-04-04T06:29:44;46.57;;;35.47;;
8944;SDS011;4507;40.232;29.132;2023-04-04T06:32:18;49.30;;;34.17;;
8944;SDS011;4507;40.232;29.132;2023-04-04T06:34:47;39.20;;;26.73;;
8944;SDS011;4507;40.232;29.132;2023-04-04T06:37:26;45.50;;;28.93;;
8944;SDS011;4507;40.232;29.132;2023-04-04T06:40:07;38.70;;;25.37;;
8944;SDS011;4507;40.232;29.132;2023-04-04T06:42:56;38.17;;;26.93;;
8944;SDS011;4507;40.232;29.132;2023-04-04T06:45:31;46.13;;;31.37;;
8944;SDS011;4507;40.232;29.132;2023-04-04T06:48:02;59.27;;;33.63;;
8944;SDS011;4507;40.232;29.132;2023-04-04T06:50:32;50.43;;;33.43;;
8944;SDS011;4507;40.232;29.132;2023-04-04T06:53:05;51.80;;;33.33;;
8944;SDS011;4507;40.232;29.132;2023-04-04T06:55:34;51.10;;;32.37;;
8944;SDS011;4507;40.232;29.132;2023-04-04T06:58:06;39.27;;;25.60;;
8944;SDS011;4507;40.232;29.132;2023-04-04T07:00:35;28.33;;;16.73;;
8944;SDS011;4507;40.232;29.132;2023-04-04T07:03:04;26.87;;;16.13;;
8944;SDS011;4507;40.232;29.132;2023-04-04T07:05:36;25.83;;;15.50;;
8944;SDS011;4507;40.232;29.132;2023-04-04T07:08:13;27.03;;;15.23;;
8944;SDS011;4507;40.232;29.132;2023-04-04T07:10:42;26.23;;;15.80;;
8944;SDS011;4507;40.232;29.132;2023-04-04T07:13:13;27.20;;;15.77;;
8944;SDS011;4507;40.232;29.132;2023-04-04T07:15:44;28.83;;;15.40;;
8944;SDS011;4507;40.232;29.132;2023-04-04T07:18:15;26.23;;;14.73;;
8944;SDS011;4507;40.232;29.132;2023-04-04T07:20:44;33.30;;;16.07;;
8944;SDS011;4507;40.232;29.132;2023-04-04T07:23:14;32.27;;;16.23;;
8944;SDS011;4507;40.232;29.132;2023-04-04T07:25:43;28.10;;;15.50;;
8944;SDS011;4507;40.232;29.132;2023-04-04T07:28:13;25.37;;;16.50;;
8944;SDS011;4507;40.232;29.132;2023-04-04T07:30:42;34.67;;;21.73;;
8944;SDS011;4507;40.232;29.132;2023-04-04T07:33:11;36.40;;;24.00;;
8944;SDS011;4507;40.232;29.132;2023-04-04T07:35:40;39.90;;;25.87;;
8944;SDS011;4507;40.232;29.132;2023-04-04T07:38:09;34.47;;;24.90;;
8944;SDS011;4507;40.232;29.132;2023-04-04T07:40:38;36.90;;;24.93;;
8944;SDS011;4507;40.232;29.132;2023-04-04T07:43:08;27.93;;;18.03;;
8944;SDS011;4507;40.232;29.132;2023-04-04T07:45:38;24.97;;;15.37;;
8944;SDS011;4507;40.232;29.132;2023-04-04T07:48:07;24.40;;;14.50;;
8944;SDS011;4507;40.232;29.132;2023-04-04T07:50:37;21.83;;;12.30;;
8944;SDS011;4507;40.232;29.132;2023-04-04T07:53:06;20.80;;;12.43;;
8944;SDS011;4507;40.232;29.132;2023-04-04T07:55:35;19.40;;;11.33;;
8944;SDS011;4507;40.232;29.132;2023-04-04T07:58:04;23.80;;;12.73;;
8944;SDS011;4507;40.232;29.132;2023-04-04T08:00:34;24.70;;;12.60;;
8944;SDS011;4507;40.232;29.132;2023-04-04T08:03:09;22.90;;;10.93;;
8944;SDS011;4507;40.232;29.132;2023-04-04T08:05:40;18.50;;;10.37;;
8944;SDS011;4507;40.232;29.132;2023-04-04T08:08:09;22.53;;;11.63;;
8944;SDS011;4507;40.232;29.132;2023-04-04T08:10:38;38.80;;;14.80;;
8944;SDS011;4507;40.232;29.132;2023-04-04T08:13:07;36.50;;;15.47;;
8944;SDS011;4507;40.232;29.132;2023-04-04T08:15:36;29.97;;;14.17;;
8944;SDS011;4507;40.232;29.132;2023-04-04T08:18:07;37.33;;;18.37;;
8944;SDS011;4507;40.232;29.132;2023-04-04T08:20:36;54.70;;;21.77;;
8944;SDS011;4507;40.232;29.132;2023-04-04T08:23:06;34.17;;;17.13;;
8944;SDS011;4507;40.232;29.132;2023-04-04T08:25:35;37.40;;;16.30;;
8944;SDS011;4507;40.232;29.132;2023-04-04T08:28:05;38.90;;;17.47;;
8944;SDS011;4507;40.232;29.132;2023-04-04T08:30:34;36.13;;;15.70;;
8944;SDS011;4507;40.232;29.132;2023-04-04T08:33:03;53.53;;;16.80;;
8944;SDS011;4507;40.232;29.132;2023-04-04T08:35:38;29.87;;;13.67;;
8944;SDS011;4507;40.232;29.132;2023-04-04T08:38:23;34.83;;;15.17;;
8944;SDS011;4507;40.232;29.132;2023-04-04T08:40:54;39.67;;;15.50;;
8944;SDS011;4507;40.232;29.132;2023-04-04T08:43:28;41.23;;;16.83;;
8944;SDS011;4507;40.232;29.132;2023-04-04T08:46:04;39.33;;;18.50;;
8944;SDS011;4507;40.232;29.132;2023-04-04T08:48:37;66.13;;;20.63;;
8944;SDS011;4507;40.232;29.132;2023-04-04T08:51:10;74.83;;;19.30;;
8944;SDS011;4507;40.232;29.132;2023-04-04T08:53:41;79.23;;;18.43;;
8944;SDS011;4507;40.232;29.132;2023-04-04T08:56:10;21.20;;;11.23;;
8944;SDS011;4507;40.232;29.132;2023-04-04T08:58:40;21.53;;;11.17;;
8944;SDS011;4507;40.232;29.132;2023-04-04T09:01:10;26.13;;;14.27;;
8944;SDS011;4507;40.232;29.132;2023-04-04T09:03:39;22.80;;;13.50;;
8944;SDS011;4507;40.232;29.132;2023-04-04T09:06:11;30.07;;;14.43;;
8944;SDS011;4507;40.232;29.132;2023-04-04T09:08:40;28.87;;;15.00;;
8944;SDS011;4507;40.232;29.132;2023-04-04T09:11:11;48.70;;;20.90;;
8944;SDS011;4507;40.232;29.132;2023-04-04T09:14:00;35.17;;;22.37;;
8944;SDS011;4507;40.232;29.132;2023-04-04T09:16:30;30.43;;;16.83;;
8944;SDS011;4507;40.232;29.132;2023-04-04T09:19:00;30.40;;;14.97;;
8944;SDS011;4507;40.232;29.132;2023-04-04T09:21:31;23.97;;;13.77;;
8944;SDS011;4507;40.232;29.132;2023-04-04T09:24:02;33.27;;;17.63;;
8944;SDS011;4507;40.232;29.132;2023-04-04T09:26:45;25.13;;;13.50;;
8944;SDS011;4507;40.232;29.132;2023-04-04T09:29:16;21.33;;;12.67;;
8944;SDS011;4507;40.232;29.132;2023-04-04T09:31:46;26.13;;;14.20;;
8944;SDS011;4507;40.232;29.132;2023-04-04T09:34:17;22.70;;;14.27;;
8944;SDS011;4507;40.232;29.132;2023-04-04T09:36:54;28.50;;;18.43;;
8944;SDS011;4507;40.232;29.132;2023-04-04T09:39:34;33.73;;;20.10;;
8944;SDS011;4507;40.232;29.132;2023-04-04T09:42:06;41.90;;;19.60;;
8944;SDS011;4507;40.232;29.132;2023-04-04T09:44:36;32.43;;;22.83;;
8944;SDS011;4507;40.232;29.132;2023-04-04T09:50:19;28.80;;;19.13;;
8944;SDS011;4507;40.232;29.132;2023-04-04T09:52:51;33.07;;;19.80;;
8944;SDS011;4507;40.232;29.132;2023-04-04T09:55:31;49.37;;;22.40;;
8944;SDS011;4507;40.232;29.132;2023-04-04T09:58:10;36.37;;;21.20;;
8944;SDS011;4507;40.232;29.132;2023-04-04T10:00:41;27.83;;;18.33;;
8944;SDS011;4507;40.232;29.132;2023-04-04T10:03:32;30.13;;;17.90;;
8944;SDS011;4507;40.232;29.132;2023-04-04T10:06:04;49.83;;;16.73;;
8944;SDS011;4507;40.232;29.132;2023-04-04T10:08:37;28.83;;;14.27;;
8944;SDS011;4507;40.232;29.132;2023-04-04T10:11:09;27.00;;;14.40;;
8944;SDS011;4507;40.232;29.132;2023-04-04T10:13:38;31.47;;;14.50;;
8944;SDS011;4507;40.232;29.132;2023-04-04T10:16:10;28.53;;;13.53;;
8944;SDS011;4507;40.232;29.132;2023-04-04T10:18:41;31.20;;;14.57;;
8944;SDS011;4507;40.232;29.132;2023-04-04T10:21:10;27.43;;;12.73;;
8944;SDS011;4507;40.232;29.132;2023-04-04T10:23:44;70.03;;;17.00;;
8944;SDS011;4507;40.232;29.132;2023-04-04T10:26:13;36.03;;;12.70;;
8944;SDS011;4507;40.232;29.132;2023-04-04T10:28:42;29.53;;;11.80;;
8944;SDS011;4507;40.232;29.132;2023-04-04T10:31:14;28.00;;;11.77;;
8944;SDS011;4507;40.232;29.132;2023-04-04T10:33:52;24.10;;;10.57;;
8944;SDS011;4507;40.232;29.132;2023-04-04T10:36:34;17.70;;;12.10;;
8944;SDS011;4507;40.232;29.132;2023-04-04T10:39:12;20.73;;;10.80;;
8944;SDS011;4507;40.232;29.132;2023-04-04T10:41:42;18.60;;;10.77;;
8944;SDS011;4507;40.232;29.132;2023-04-04T10:44:15;19.97;;;11.43;;
8944;SDS011;4507;40.232;29.132;2023-04-04T10:46:51;39.17;;;13.33;;
8944;SDS011;4507;40.232;29.132;2023-04-04T10:49:21;37.57;;;14.33;;
8944;SDS011;4507;40.232;29.132;2023-04-04T10:51:50;49.50;;;23.17;;
8944;SDS011;4507;40.232;29.132;2023-04-04T10:54:25;24.73;;;16.03;;
8944;SDS011;4507;40.232;29.132;2023-04-04T10:56:56;22.80;;;14.80;;
8944;SDS011;4507;40.232;29.132;2023-04-04T10:59:28;27.73;;;15.83;;
8944;SDS011;4507;40.232;29.132;2023-04-04T11:01:58;25.83;;;15.17;;
8944;SDS011;4507;40.232;29.132;2023-04-04T11:04:29;26.53;;;15.40;;
8944;SDS011;4507;40.232;29.132;2023-04-04T11:07:08;28.63;;;17.13;;
8944;SDS011;4507;40.232;29.132;2023-04-04T11:09:52;35.70;;;17.50;;
8944;SDS011;4507;40.232;29.132;2023-04-04T11:12:26;26.23;;;15.33;;
8944;SDS011;4507;40.232;29.132;2023-04-04T11:15:06;34.80;;;16.17;;
8944;SDS011;4507;40.232;29.132;2023-04-04T11:17:43;28.93;;;17.33;;
8944;SDS011;4507;40.232;29.132;2023-04-04T11:20:29;25.93;;;16.67;;
8944;SDS011;4507;40.232;29.132;2023-04-04T11:23:02;22.87;;;16.03;;
8944;SDS011;4507;40.232;29.132;2023-04-04T11:25:34;25.80;;;15.70;;
8944;SDS011;4507;40.232;29.132;2023-04-04T11:28:11;28.37;;;17.03;;
8944;SDS011;4507;40.232;29.132;2023-04-04T11:30:42;31.37;;;18.10;;
8944;SDS011;4507;40.232;29.132;2023-04-04T11:33:24;26.07;;;17.43;;
8944;SDS011;4507;40.232;29.132;2023-04-04T11:35:58;21.67;;;16.57;;
8944;SDS011;4507;40.232;29.132;2023-04-04T11:38:34;30.97;;;18.87;;
8944;SDS011;4507;40.232;29.132;2023-04-04T11:41:08;26.93;;;18.60;;
8944;SDS011;4507;40.232;29.132;2023-04-04T11:43:43;38.23;;;17.97;;
8944;SDS011;4507;40.232;29.132;2023-04-04T11:46:14;29.10;;;16.60;;
8944;SDS011;4507;40.232;29.132;2023-04-04T11:48:45;38.23;;;17.37;;
8944;SDS011;4507;40.232;29.132;2023-04-04T11:51:15;38.00;;;18.03;;
8944;SDS011;4507;40.232;29.132;2023-04-04T11:53:46;33.63;;;16.90;;
8944;SDS011;4507;40.232;29.132;2023-04-04T11:56:16;38.57;;;17.17;;
8944;SDS011;4507;40.232;29.132;2023-04-04T11:58:46;24.27;;;15.93;;
8944;SDS011;4507;40.232;29.132;2023-04-04T12:01:30;35.33;;;18.77;;
8944;SDS011;4507;40.232;29.132;2023-04-04T12:04:00;42.50;;;21.93;;
8944;SDS011;4507;40.232;29.132;2023-04-04T12:06:29;32.47;;;20.20;;
8944;SDS011;4507;40.232;29.132;2023-04-04T12:08:58;56.83;;;30.03;;
8944;SDS011;4507;40.232;29.132;2023-04-04T12:11:31;40.93;;;25.40;;
8944;SDS011;4507;40.232;29.132;2023-04-04T12:14:11;38.57;;;22.10;;
8944;SDS011;4507;40.232;29.132;2023-04-04T12:16:49;56.53;;;24.33;;
8944;SDS011;4507;40.232;29.132;2023-04-04T12:19:19;46.57;;;18.80;;
8944;SDS011;4507;40.232;29.132;2023-04-04T12:21:51;33.97;;;19.73;;
8944;SDS011;4507;40.232;29.132;2023-04-04T12:24:21;44.50;;;25.00;;
8944;SDS011;4507;40.232;29.132;2023-04-04T12:26:52;28.87;;;15.23;;
8944;SDS011;4507;40.232;29.132;2023-04-04T12:29:21;27.93;;;15.97;;
8944;SDS011;4507;40.232;29.132;2023-04-04T12:31:53;41.33;;;23.73;;
8944;SDS011;4507;40.232;29.132;2023-04-04T12:34:27;52.03;;;21.40;;
8944;SDS011;4507;40.232;29.132;2023-04-04T12:36:57;38.50;;;22.17;;
8944;SDS011;4507;40.232;29.132;2023-04-04T12:39:28;37.73;;;22.70;;
8944;SDS011;4507;40.232;29.132;2023-04-04T12:42:00;37.77;;;23.53;;
8944;SDS011;4507;40.232;29.132;2023-04-04T12:44:31;80.73;;;35.77;;
8944;SDS011;4507;40.232;29.132;2023-04-04T12:47:02;53.70;;;29.23;;
8944;SDS011;4507;40.232;29.132;2023-04-04T12:49:33;45.10;;;27.40;;
8944;SDS011;4507;40.232;29.132;2023-04-04T12:52:15;51.00;;;26.53;;
8944;SDS011;4507;40.232;29.132;2023-04-04T12:54:45;56.70;;;24.10;;
8944;SDS011;4507;40.232;29.132;2023-04-04T12:57:37;34.97;;;16.63;;
8944;SDS011;4507;40.232;29.132;2023-04-04T13:00:07;41.97;;;15.87;;
8944;SDS011;4507;40.232;29.132;2023-04-04T13:02:37;36.30;;;19.00;;
8944;SDS011;4507;40.232;29.132;2023-04-04T13:05:06;34.67;;;19.83;;
8944;SDS011;4507;40.232;29.132;2023-04-04T13:07:37;92.13;;;22.93;;
8944;SDS011;4507;40.232;29.132;2023-04-04T13:10:10;37.70;;;16.43;;
8944;SDS011;4507;40.232;29.132;2023-04-04T13:12:54;49.73;;;16.23;;
8944;SDS011;4507;40.232;29.132;2023-04-04T13:18:18;45.87;;;16.03;;
8944;SDS011;4507;40.232;29.132;2023-04-04T13:20:49;41.17;;;18.23;;
8944;SDS011;4507;40.232;29.132;2023-04-04T13:23:19;40.43;;;18.67;;
8944;SDS011;4507;40.232;29.132;2023-04-04T13:25:48;47.53;;;22.30;;
8944;SDS011;4507;40.232;29.132;2023-04-04T13:28:19;58.17;;;23.03;;
8944;SDS011;4507;40.232;29.132;2023-04-04T13:30:48;53.70;;;24.73;;
8944;SDS011;4507;40.232;29.132;2023-04-04T13:33:17;40.30;;;22.77;;
8944;SDS011;4507;40.232;29.132;2023-04-04T13:35:48;38.60;;;23.53;;
8944;SDS011;4507;40.232;29.132;2023-04-04T13:38:18;31.60;;;18.33;;
8944;SDS011;4507;40.232;29.132;2023-04-04T13:40:47;37.90;;;18.67;;
8944;SDS011;4507;40.232;29.132;2023-04-04T13:43:16;46.13;;;20.57;;
8944;SDS011;4507;40.232;29.132;2023-04-04T13:45:46;32.43;;;16.47;;
8944;SDS011;4507;40.232;29.132;2023-04-04T13:48:15;25.43;;;13.53;;
8944;SDS011;4507;40.232;29.132;2023-04-04T13:50:45;24.23;;;13.83;;
8944;SDS011;4507;40.232;29.132;2023-04-04T13:53:17;24.03;;;15.70;;
8944;SDS011;4507;40.232;29.132;2023-04-04T13:55:46;37.87;;;17.97;;
8944;SDS011;4507;40.232;29.132;2023-04-04T13:58:35;37.03;;;19.17;;
8944;SDS011;4507;40.232;29.132;2023-04-04T14:01:06;52.67;;;22.53;;
8944;SDS011;4507;40.232;29.132;2023-04-04T14:03:35;46.97;;;29.47;;
8944;SDS011;4507;40.232;29.132;2023-04-04T14:06:04;67.60;;;46.77;;
8944;SDS011;4507;40.232;29.132;2023-04-04T14:08:37;47.03;;;37.30;;
8944;SDS011;4507;40.232;29.132;2023-04-04T14:11:06;44.63;;;33.63;;
8944;SDS011;4507;40.232;29.132;2023-04-04T14:13:35;43.97;;;34.43;;
8944;SDS011;4507;40.232;29.132;2023-04-04T14:16:06;68.60;;;51.60;;
8944;SDS011;4507;40.232;29.132;2023-04-04T14:18:36;91.53;;;58.00;;
8944;SDS011;4507;40.232;29.132;2023-04-04T14:21:05;59.87;;;40.63;;
8944;SDS011;4507;40.232;29.132;2023-04-04T14:23:34;45.70;;;32.20;;
8944;SDS011;4507;40.232;29.132;2023-04-04T14:26:21;57.80;;;45.27;;
8944;SDS011;4507;40.232;29.132;2023-04-04T14:28:55;116.83;;;105.53;;
8944;SDS011;4507;40.232;29.132;2023-04-04T14:31:25;88.37;;;79.30;;
8944;SDS011;4507;40.232;29.132;2023-04-04T14:33:54;62.97;;;51.47;;
8944;SDS011;4507;40.232;29.132;2023-04-04T14:36:24;39.17;;;32.27;;
8944;SDS011;4507;40.232;29.132;2023-04-04T14:38:53;36.47;;;29.17;;
8944;SDS011;4507;40.232;29.132;2023-04-04T14:41:22;35.40;;;27.17;;
8944;SDS011;4507;40.232;29.132;2023-04-04T14:43:51;33.70;;;24.63;;
8944;SDS011;4507;40.232;29.132;2023-04-04T14:46:20;30.73;;;24.40;;
8944;SDS011;4507;40.232;29.132;2023-04-04T14:48:52;30.63;;;25.20;;
8944;SDS011;4507;40.232;29.132;2023-04-04T14:51:21;37.87;;;27.57;;
8944;SDS011;4507;40.232;29.132;2023-04-04T14:53:50;33.17;;;25.87;;
8944;SDS011;4507;40.232;29.132;2023-04-04T14:56:19;35.33;;;26.37;;
8944;SDS011;4507;40.232;29.132;2023-04-04T14:58:49;31.60;;;25.90;;
8944;SDS011;4507;40.232;29.132;2023-04-04T15:01:18;35.13;;;29.03;;
8944;SDS011;4507;40.232;29.132;2023-04-04T15:03:48;40.00;;;33.33;;
8944;SDS011;4507;40.232;29.132;2023-04-04T15:06:19;36.57;;;29.03;;
8944;SDS011;4507;40.232;29.132;2023-04-04T15:08:48;41.27;;;30.83;;